sensor_id;sensor_type;location;lat;lon;timestamp;temperature;humidity
41256;DHT22;26989;45.524;10.938;2024-01-06T00:01:15;9.50;99.90
41256;DHT22;26989;45.524;10.938;2024-01-06T00:03:42;9.50;99.90
41256;DHT22;26989;45.524;10.938;2024-01-06T00:06:15;9.50;99.90
41256;DHT22;26989;45.524;10.938;2024-01-06T00:08:43;9.50;99.90
41256;DHT22;26989;45.524;10.938;2024-01-06T00:11:10;9.50;99.90
41256;DHT22;26989;45.524;10.938;2024-01-06T00:13:37;9.50;99.90
41256;DHT22;26989;45.524;10.938;2024-01-06T00:16:04;9.40;99.90
41256;DHT22;26989;45.524;10.938;2024-01-06T00:18:31;9.30;99.90
41256;DHT22;26989;45.524;10.938;2024-01-06T00:20:58;9.30;99.90
41256;DHT22;26989;45.524;10.938;2024-01-06T00:23:24;9.20;99.90
41256;DHT22;26989;45.524;10.938;2024-01-06T00:25:51;9.10;99.90
41256;DHT22;26989;45.524;10.938;2024-01-06T00:28:18;9.10;99.90
41256;DHT22;26989;45.524;10.938;2024-01-06T00:30:45;9.10;99.90
41256;DHT22;26989;45.524;10.938;2024-01-06T00:33:12;9.00;99.90
41256;DHT22;26989;45.524;10.938;2024-01-06T00:35:40;9.00;99.90
41256;DHT22;26989;45.524;10.938;2024-01-06T00:38:07;9.00;99.90
41256;DHT22;26989;45.524;10.938;2024-01-06T00:40:34;8.90;99.90
41256;DHT22;26989;45.524;10.938;2024-01-06T00:43:00;8.90;99.90
41256;DHT22;26989;45.524;10.938;2024-01-06T00:45:27;8.90;99.90
41256;DHT22;26989;45.524;10.938;2024-01-06T00:47:54;8.90;99.90
41256;DHT22;26989;45.524;10.938;2024-01-06T00:50:21;8.90;99.90
41256;DHT22;26989;45.524;10.938;2024-01-06T00:52:48;8.90;99.90
41256;DHT22;26989;45.524;10.938;2024-01-06T00:55:22;8.80;99.90
41256;DHT22;26989;45.524;10.938;2024-01-06T00:57:49;8.80;99.90
41256;DHT22;26989;45.524;10.938;2024-01-06T01:00:16;8.90;99.90
41256;DHT22;26989;45.524;10.938;2024-01-06T01:02:43;8.80;99.90
41256;DHT22;26989;45.524;10.938;2024-01-06T01:05:10;8.80;99.90
41256;DHT22;26989;45.524;10.938;2024-01-06T01:07:37;8.80;99.90
41256;DHT22;26989;45.524;10.938;2024-01-06T01:10:04;8.70;99.90
41256;DHT22;26989;45.524;10.938;2024-01-06T01:12:32;8.70;99.90
41256;DHT22;26989;45.524;10.938;2024-01-06T01:14:59;8.70;99.90
41256;DHT22;26989;45.524;10.938;2024-01-06T01:17:26;8.70;99.90
41256;DHT22;26989;45.524;10.938;2024-01-06T01:19:53;8.70;99.90
41256;DHT22;26989;45.524;10.938;2024-01-06T01:22:20;8.70;99.90
41256;DHT22;26989;45.524;10.938;2024-01-06T01:24:47;8.70;99.90
41256;DHT22;26989;45.524;10.938;2024-01-06T01:27:14;8.70;99.90
41256;DHT22;26989;45.524;10.938;2024-01-06T01:29:41;8.70;99.90
41256;DHT22;26989;45.524;10.938;2024-01-06T01:32:08;8.70;99.90
41256;DHT22;26989;45.524;10.938;2024-01-06T01:34:35;8.70;99.90
41256;DHT22;26989;45.524;10.938;2024-01-06T01:37:02;8.70;99.90
41256;DHT22;26989;45.524;10.938;2024-01-06T01:39:29;8.70;99.90
41256;DHT22;26989;45.524;10.938;2024-01-06T01:41:56;8.60;99.90
41256;DHT22;26989;45.524;10.938;2024-01-06T01:44:22;8.70;99.90
41256;DHT22;26989;45.524;10.938;2024-01-06T01:46:49;8.70;99.90
41256;DHT22;26989;45.524;10.938;2024-01-06T01:49:16;8.70;99.90
41256;DHT22;26989;45.524;10.938;2024-01-06T01:51:44;8.70;99.90
41256;DHT22;26989;45.524;10.938;2024-01-06T01:54:11;8.70;99.90
41256;DHT22;26989;45.524;10.938;2024-01-06T01:56:39;8.70;99.90
41256;DHT22;26989;45.524;10.938;2024-01-06T01:59:11;8.70;99.90
41256;DHT22;26989;45.524;10.938;2024-01-06T02:01:41;8.70;99.90
41256;DHT22;26989;45.524;10.938;2024-01-06T02:04:09;8.70;99.90
41256;DHT22;26989;45.524;10.938;2024-01-06T02:06:36;8.80;99.90
41256;DHT22;26989;45.524;10.938;2024-01-06T02:09:03;8.80;99.90
41256;DHT22;26989;45.524;10.938;2024-01-06T02:11:30;8.70;99.90
41256;DHT22;26989;45.524;10.938;2024-01-06T02:13:57;8.60;99.90
41256;DHT22;26989;45.524;10.938;2024-01-06T02:16:24;8.60;99.90
41256;DHT22;26989;45.524;10.938;2024-01-06T02:18:51;8.60;99.90
41256;DHT22;26989;45.524;10.938;2024-01-06T02:21:18;8.60;99.90
41256;DHT22;26989;45.524;10.938;2024-01-06T02:23:47;8.70;99.90
41256;DHT22;26989;45.524;10.938;2024-01-06T02:26:14;8.80;99.90
41256;DHT22;26989;45.524;10.938;2024-01-06T02:28:41;8.80;99.90
41256;DHT22;26989;45.524;10.938;2024-01-06T02:31:11;8.80;99.90
41256;DHT22;26989;45.524;10.938;2024-01-06T02:33:38;8.80;99.90
41256;DHT22;26989;45.524;10.938;2024-01-06T02:36:06;8.80;99.90
41256;DHT22;26989;45.524;10.938;2024-01-06T02:38:33;8.80;99.90
41256;DHT22;26989;45.524;10.938;2024-01-06T02:40:59;8.80;99.90
41256;DHT22;26989;45.524;10.938;2024-01-06T02:43:26;8.80;99.90
41256;DHT22;26989;45.524;10.938;2024-01-06T02:45:53;8.80;99.90
41256;DHT22;26989;45.524;10.938;2024-01-06T02:48:20;8.90;99.90
41256;DHT22;26989;45.524;10.938;2024-01-06T02:50:47;8.90;99.90
41256;DHT22;26989;45.524;10.938;2024-01-06T02:53:14;8.90;99.90
41256;DHT22;26989;45.524;10.938;2024-01-06T02:55:41;8.90;99.90
41256;DHT22;26989;45.524;10.938;2024-01-06T02:58:08;8.90;99.90
41256;DHT22;26989;45.524;10.938;2024-01-06T03:00:35;8.90;99.90
41256;DHT22;26989;45.524;10.938;2024-01-06T03:03:02;8.80;99.90
41256;DHT22;26989;45.524;10.938;2024-01-06T03:05:29;8.80;99.90
41256;DHT22;26989;45.524;10.938;2024-01-06T03:07:56;8.80;99.90
41256;DHT22;26989;45.524;10.938;2024-01-06T03:10:22;8.80;99.90
41256;DHT22;26989;45.524;10.938;2024-01-06T03:12:49;8.80;99.90
41256;DHT22;26989;45.524;10.938;2024-01-06T03:15:16;8.80;99.90
41256;DHT22;26989;45.524;10.938;2024-01-06T03:17:43;8.80;99.90
41256;DHT22;26989;45.524;10.938;2024-01-06T03:20:11;8.80;99.90
41256;DHT22;26989;45.524;10.938;2024-01-06T03:22:37;8.80;99.90
41256;DHT22;26989;45.524;10.938;2024-01-06T03:25:05;8.80;99.90
41256;DHT22;26989;45.524;10.938;2024-01-06T03:27:32;8.80;99.90
41256;DHT22;26989;45.524;10.938;2024-01-06T03:30:00;8.80;99.90
41256;DHT22;26989;45.524;10.938;2024-01-06T03:32:27;8.80;99.90
41256;DHT22;26989;45.524;10.938;2024-01-06T03:34:55;8.80;99.90
41256;DHT22;26989;45.524;10.938;2024-01-06T03:37:22;8.70;99.90
41256;DHT22;26989;45.524;10.938;2024-01-06T03:39:49;8.70;99.90
41256;DHT22;26989;45.524;10.938;2024-01-06T03:42:16;8.70;99.90
41256;DHT22;26989;45.524;10.938;2024-01-06T03:44:43;8.70;99.90
41256;DHT22;26989;45.524;10.938;2024-01-06T03:47:10;8.80;99.90
41256;DHT22;26989;45.524;10.938;2024-01-06T03:49:37;8.80;99.90
41256;DHT22;26989;45.524;10.938;2024-01-06T03:52:04;8.80;99.90
41256;DHT22;26989;45.524;10.938;2024-01-06T03:54:31;8.80;99.90
41256;DHT22;26989;45.524;10.938;2024-01-06T03:56:58;8.80;99.90
41256;DHT22;26989;45.524;10.938;2024-01-06T03:59:25;8.90;99.90
41256;DHT22;26989;45.524;10.938;2024-01-06T04:01:52;8.90;99.90
41256;DHT22;26989;45.524;10.938;2024-01-06T04:04:19;8.90;99.90
41256;DHT22;26989;45.524;10.938;2024-01-06T04:06:47;8.90;99.90
41256;DHT22;26989;45.524;10.938;2024-01-06T04:09:14;8.80;99.90
41256;DHT22;26989;45.524;10.938;2024-01-06T04:11:44;8.90;99.90
41256;DHT22;26989;45.524;10.938;2024-01-06T04:14:11;8.90;99.90
41256;DHT22;26989;45.524;10.938;2024-01-06T04:16:38;8.80;99.90
41256;DHT22;26989;45.524;10.938;2024-01-06T04:19:05;8.90;99.90
41256;DHT22;26989;45.524;10.938;2024-01-06T04:21:34;8.90;99.90
41256;DHT22;26989;45.524;10.938;2024-01-06T04:24:01;8.90;99.90
41256;DHT22;26989;45.524;10.938;2024-01-06T04:26:28;8.90;99.90
41256;DHT22;26989;45.524;10.938;2024-01-06T04:28:55;8.90;99.90
41256;DHT22;26989;45.524;10.938;2024-01-06T04:31:22;8.90;99.90
41256;DHT22;26989;45.524;10.938;2024-01-06T04:33:49;8.90;99.90
41256;DHT22;26989;45.524;10.938;2024-01-06T04:36:16;8.90;99.90
41256;DHT22;26989;45.524;10.938;2024-01-06T04:38:43;8.90;99.90
41256;DHT22;26989;45.524;10.938;2024-01-06T04:41:10;8.90;99.90
41256;DHT22;26989;45.524;10.938;2024-01-06T04:43:36;8.90;99.90
41256;DHT22;26989;45.524;10.938;2024-01-06T04:46:03;8.90;99.90
41256;DHT22;26989;45.524;10.938;2024-01-06T04:48:30;8.80;99.90
41256;DHT22;26989;45.524;10.938;2024-01-06T04:50:57;8.70;99.90
41256;DHT22;26989;45.524;10.938;2024-01-06T04:53:24;8.70;99.90
41256;DHT22;26989;45.524;10.938;2024-01-06T04:55:51;8.70;99.90
41256;DHT22;26989;45.524;10.938;2024-01-06T04:58:18;8.60;99.90
41256;DHT22;26989;45.524;10.938;2024-01-06T05:00:45;8.60;99.90
41256;DHT22;26989;45.524;10.938;2024-01-06T05:03:12;8.50;99.90
41256;DHT22;26989;45.524;10.938;2024-01-06T05:05:39;8.50;99.90
41256;DHT22;26989;45.524;10.938;2024-01-06T05:08:06;8.50;99.90
41256;DHT22;26989;45.524;10.938;2024-01-06T05:10:33;8.50;99.90
41256;DHT22;26989;45.524;10.938;2024-01-06T05:13:00;8.50;99.90
41256;DHT22;26989;45.524;10.938;2024-01-06T05:15:26;8.50;99.90
41256;DHT22;26989;45.524;10.938;2024-01-06T05:17:54;8.60;99.90
41256;DHT22;26989;45.524;10.938;2024-01-06T05:20:21;8.50;99.90
41256;DHT22;26989;45.524;10.938;2024-01-06T05:22:47;8.50;99.90
41256;DHT22;26989;45.524;10.938;2024-01-06T05:25:14;8.50;99.90
41256;DHT22;26989;45.524;10.938;2024-01-06T05:27:41;8.40;99.90
41256;DHT22;26989;45.524;10.938;2024-01-06T05:30:08;8.30;99.90
41256;DHT22;26989;45.524;10.938;2024-01-06T05:32:37;8.30;99.90
41256;DHT22;26989;45.524;10.938;2024-01-06T05:35:04;8.40;99.90
41256;DHT22;26989;45.524;10.938;2024-01-06T05:37:32;8.40;99.90
41256;DHT22;26989;45.524;10.938;2024-01-06T05:39:59;8.50;99.90
41256;DHT22;26989;45.524;10.938;2024-01-06T05:42:28;8.60;99.90
41256;DHT22;26989;45.524;10.938;2024-01-06T05:44:55;8.50;99.90
41256;DHT22;26989;45.524;10.938;2024-01-06T05:47:22;8.60;99.90
41256;DHT22;26989;45.524;10.938;2024-01-06T05:49:49;8.70;99.90
41256;DHT22;26989;45.524;10.938;2024-01-06T05:52:16;8.70;99.90
41256;DHT22;26989;45.524;10.938;2024-01-06T05:54:43;8.70;99.90
41256;DHT22;26989;45.524;10.938;2024-01-06T05:57:10;8.80;99.90
41256;DHT22;26989;45.524;10.938;2024-01-06T05:59:37;8.80;99.90
41256;DHT22;26989;45.524;10.938;2024-01-06T06:02:04;8.90;99.90
41256;DHT22;26989;45.524;10.938;2024-01-06T06:04:31;8.90;99.90
41256;DHT22;26989;45.524;10.938;2024-01-06T06:06:58;8.90;99.90
41256;DHT22;26989;45.524;10.938;2024-01-06T06:09:28;8.90;99.90
41256;DHT22;26989;45.524;10.938;2024-01-06T06:11:55;9.00;99.90
41256;DHT22;26989;45.524;10.938;2024-01-06T06:14:22;9.00;99.90
41256;DHT22;26989;45.524;10.938;2024-01-06T06:16:53;8.90;99.90
41256;DHT22;26989;45.524;10.938;2024-01-06T06:19:20;8.90;99.90
41256;DHT22;26989;45.524;10.938;2024-01-06T06:21:47;9.00;99.90
41256;DHT22;26989;45.524;10.938;2024-01-06T06:24:14;9.00;99.90
41256;DHT22;26989;45.524;10.938;2024-01-06T06:26:41;9.00;99.90
41256;DHT22;26989;45.524;10.938;2024-01-06T06:29:08;9.00;99.90
41256;DHT22;26989;45.524;10.938;2024-01-06T06:31:35;9.10;99.90
41256;DHT22;26989;45.524;10.938;2024-01-06T06:34:02;9.00;99.90
41256;DHT22;26989;45.524;10.938;2024-01-06T06:36:34;9.10;99.90
41256;DHT22;26989;45.524;10.938;2024-01-06T06:39:01;9.00;99.90
41256;DHT22;26989;45.524;10.938;2024-01-06T06:41:28;9.00;99.90
41256;DHT22;26989;45.524;10.938;2024-01-06T06:43:56;9.10;99.90
41256;DHT22;26989;45.524;10.938;2024-01-06T06:46:23;9.00;99.90
41256;DHT22;26989;45.524;10.938;2024-01-06T06:48:50;9.00;99.90
41256;DHT22;26989;45.524;10.938;2024-01-06T06:51:17;9.00;99.90
41256;DHT22;26989;45.524;10.938;2024-01-06T06:53:44;9.00;99.90
41256;DHT22;26989;45.524;10.938;2024-01-06T06:56:13;9.00;99.90
41256;DHT22;26989;45.524;10.938;2024-01-06T06:58:43;9.00;99.90
41256;DHT22;26989;45.524;10.938;2024-01-06T07:01:10;9.00;99.90
41256;DHT22;26989;45.524;10.938;2024-01-06T07:03:37;9.00;99.90
41256;DHT22;26989;45.524;10.938;2024-01-06T07:06:04;9.10;99.90
41256;DHT22;26989;45.524;10.938;2024-01-06T07:08:32;9.00;99.90
41256;DHT22;26989;45.524;10.938;2024-01-06T07:10:58;9.10;99.90
41256;DHT22;26989;45.524;10.938;2024-01-06T07:13:25;9.10;99.90
41256;DHT22;26989;45.524;10.938;2024-01-06T07:15:53;9.10;99.90
41256;DHT22;26989;45.524;10.938;2024-01-06T07:18:33;9.00;99.90
41256;DHT22;26989;45.524;10.938;2024-01-06T07:21:00;9.00;99.90
41256;DHT22;26989;45.524;10.938;2024-01-06T07:23:28;9.00;99.90
41256;DHT22;26989;45.524;10.938;2024-01-06T07:25:55;9.10;99.90
41256;DHT22;26989;45.524;10.938;2024-01-06T07:28:22;9.00;99.90
41256;DHT22;26989;45.524;10.938;2024-01-06T07:30:49;9.10;99.90
41256;DHT22;26989;45.524;10.938;2024-01-06T07:33:16;9.10;99.90
41256;DHT22;26989;45.524;10.938;2024-01-06T07:35:43;9.10;99.90
41256;DHT22;26989;45.524;10.938;2024-01-06T07:38:10;9.10;99.90
41256;DHT22;26989;45.524;10.938;2024-01-06T07:40:37;9.10;99.90
41256;DHT22;26989;45.524;10.938;2024-01-06T07:43:04;9.10;99.90
41256;DHT22;26989;45.524;10.938;2024-01-06T07:45:32;9.10;99.90
41256;DHT22;26989;45.524;10.938;2024-01-06T07:47:59;9.10;99.90
41256;DHT22;26989;45.524;10.938;2024-01-06T07:50:26;9.10;99.90
41256;DHT22;26989;45.524;10.938;2024-01-06T07:52:54;9.20;99.90
41256;DHT22;26989;45.524;10.938;2024-01-06T07:55:21;9.20;99.90
41256;DHT22;26989;45.524;10.938;2024-01-06T07:57:48;9.20;99.90
41256;DHT22;26989;45.524;10.938;2024-01-06T08:00:15;9.20;99.90
41256;DHT22;26989;45.524;10.938;2024-01-06T08:02:43;9.10;99.90
41256;DHT22;26989;45.524;10.938;2024-01-06T08:05:10;9.20;99.90
41256;DHT22;26989;45.524;10.938;2024-01-06T08:07:37;9.20;99.90
41256;DHT22;26989;45.524;10.938;2024-01-06T08:10:04;9.20;99.90
41256;DHT22;26989;45.524;10.938;2024-01-06T08:12:32;9.20;99.90
41256;DHT22;26989;45.524;10.938;2024-01-06T08:14:59;9.30;99.90
41256;DHT22;26989;45.524;10.938;2024-01-06T08:17:26;9.30;99.90
41256;DHT22;26989;45.524;10.938;2024-01-06T08:19:52;9.30;99.90
41256;DHT22;26989;45.524;10.938;2024-01-06T08:22:19;9.30;99.90
41256;DHT22;26989;45.524;10.938;2024-01-06T08:24:46;9.30;99.90
41256;DHT22;26989;45.524;10.938;2024-01-06T08:27:13;9.20;99.90
41256;DHT22;26989;45.524;10.938;2024-01-06T08:29:40;9.30;99.90
41256;DHT22;26989;45.524;10.938;2024-01-06T08:32:08;9.20;99.90
41256;DHT22;26989;45.524;10.938;2024-01-06T08:34:35;9.20;99.90
41256;DHT22;26989;45.524;10.938;2024-01-06T08:37:02;9.20;99.90
41256;DHT22;26989;45.524;10.938;2024-01-06T08:39:30;9.20;99.90
41256;DHT22;26989;45.524;10.938;2024-01-06T08:41:57;9.20;99.90
41256;DHT22;26989;45.524;10.938;2024-01-06T08:44:28;9.30;99.90
41256;DHT22;26989;45.524;10.938;2024-01-06T08:46:55;9.20;99.90
41256;DHT22;26989;45.524;10.938;2024-01-06T08:49:22;9.20;99.90
41256;DHT22;26989;45.524;10.938;2024-01-06T08:51:49;9.30;99.90
41256;DHT22;26989;45.524;10.938;2024-01-06T08:54:16;9.30;99.90
41256;DHT22;26989;45.524;10.938;2024-01-06T08:56:43;9.30;99.90
41256;DHT22;26989;45.524;10.938;2024-01-06T08:59:10;9.30;99.90
41256;DHT22;26989;45.524;10.938;2024-01-06T09:01:37;9.20;99.90
41256;DHT22;26989;45.524;10.938;2024-01-06T09:04:05;9.30;99.90
41256;DHT22;26989;45.524;10.938;2024-01-06T09:06:34;9.30;99.90
41256;DHT22;26989;45.524;10.938;2024-01-06T09:09:01;9.30;99.90
41256;DHT22;26989;45.524;10.938;2024-01-06T09:11:28;9.30;99.90
41256;DHT22;26989;45.524;10.938;2024-01-06T09:13:55;9.30;99.90
41256;DHT22;26989;45.524;10.938;2024-01-06T09:16:21;9.30;99.90
41256;DHT22;26989;45.524;10.938;2024-01-06T09:18:49;9.20;99.90
41256;DHT22;26989;45.524;10.938;2024-01-06T09:21:16;9.30;99.90
41256;DHT22;26989;45.524;10.938;2024-01-06T09:23:44;9.20;99.90
41256;DHT22;26989;45.524;10.938;2024-01-06T09:26:11;9.30;99.90
41256;DHT22;26989;45.524;10.938;2024-01-06T09:28:38;9.30;99.90
41256;DHT22;26989;45.524;10.938;2024-01-06T09:31:06;9.20;99.90
41256;DHT22;26989;45.524;10.938;2024-01-06T09:33:33;9.30;99.90
41256;DHT22;26989;45.524;10.938;2024-01-06T09:36:02;9.30;99.90
41256;DHT22;26989;45.524;10.938;2024-01-06T09:38:28;9.30;99.90
41256;DHT22;26989;45.524;10.938;2024-01-06T09:40:56;9.30;99.90
41256;DHT22;26989;45.524;10.938;2024-01-06T09:43:24;9.30;99.90
41256;DHT22;26989;45.524;10.938;2024-01-06T09:48:33;9.30;99.90
41256;DHT22;26989;45.524;10.938;2024-01-06T09:51:03;9.30;99.90
41256;DHT22;26989;45.524;10.938;2024-01-06T09:53:34;9.30;99.90
41256;DHT22;26989;45.524;10.938;2024-01-06T09:56:04;9.30;99.90
41256;DHT22;26989;45.524;10.938;2024-01-06T09:58:31;9.30;99.90
41256;DHT22;26989;45.524;10.938;2024-01-06T10:01:01;9.30;99.90
41256;DHT22;26989;45.524;10.938;2024-01-06T10:03:28;9.40;99.90
41256;DHT22;26989;45.524;10.938;2024-01-06T10:05:56;9.40;99.90
41256;DHT22;26989;45.524;10.938;2024-01-06T10:08:27;9.50;99.90
41256;DHT22;26989;45.524;10.938;2024-01-06T10:10:54;9.50;99.90
41256;DHT22;26989;45.524;10.938;2024-01-06T10:13:21;9.40;99.90
41256;DHT22;26989;45.524;10.938;2024-01-06T10:15:48;9.50;99.90
41256;DHT22;26989;45.524;10.938;2024-01-06T10:18:15;9.60;99.90
41256;DHT22;26989;45.524;10.938;2024-01-06T10:20:44;9.60;99.90
41256;DHT22;26989;45.524;10.938;2024-01-06T10:23:25;9.60;99.90
41256;DHT22;26989;45.524;10.938;2024-01-06T10:25:54;9.70;99.90
41256;DHT22;26989;45.524;10.938;2024-01-06T10:28:25;9.70;99.90
41256;DHT22;26989;45.524;10.938;2024-01-06T10:30:53;9.80;99.90
41256;DHT22;26989;45.524;10.938;2024-01-06T10:33:22;9.70;99.90
41256;DHT22;26989;45.524;10.938;2024-01-06T10:35:49;9.80;99.90
41256;DHT22;26989;45.524;10.938;2024-01-06T10:38:17;9.80;99.90
41256;DHT22;26989;45.524;10.938;2024-01-06T10:41:03;9.80;99.90
41256;DHT22;26989;45.524;10.938;2024-01-06T10:43:37;9.80;99.90
41256;DHT22;26989;45.524;10.938;2024-01-06T10:46:10;9.90;99.90
41256;DHT22;26989;45.524;10.938;2024-01-06T10:48:39;9.80;99.90
41256;DHT22;26989;45.524;10.938;2024-01-06T10:51:10;9.80;99.90
41256;DHT22;26989;45.524;10.938;2024-01-06T10:53:40;9.90;99.90
41256;DHT22;26989;45.524;10.938;2024-01-06T10:56:08;9.90;99.90
41256;DHT22;26989;45.524;10.938;2024-01-06T10:58:37;9.90;99.90
41256;DHT22;26989;45.524;10.938;2024-01-06T11:01:10;9.90;99.90
41256;DHT22;26989;45.524;10.938;2024-01-06T11:03:38;9.80;99.90
41256;DHT22;26989;45.524;10.938;2024-01-06T11:06:06;9.90;99.90
41256;DHT22;26989;45.524;10.938;2024-01-06T11:08:52;9.80;99.90
41256;DHT22;26989;45.524;10.938;2024-01-06T11:11:20;9.80;99.90
41256;DHT22;26989;45.524;10.938;2024-01-06T11:13:47;9.90;99.90
41256;DHT22;26989;45.524;10.938;2024-01-06T11:16:47;9.80;99.90
41256;DHT22;26989;45.524;10.938;2024-01-06T11:22:26;9.80;99.90
41256;DHT22;26989;45.524;10.938;2024-01-06T11:25:06;9.80;99.90
41256;DHT22;26989;45.524;10.938;2024-01-06T11:27:35;9.70;99.90
41256;DHT22;26989;45.524;10.938;2024-01-06T11:30:04;9.70;99.90
41256;DHT22;26989;45.524;10.938;2024-01-06T11:32:36;9.80;99.90
41256;DHT22;26989;45.524;10.938;2024-01-06T11:35:14;9.80;99.90
41256;DHT22;26989;45.524;10.938;2024-01-06T11:42:48;9.70;99.90
41256;DHT22;26989;45.524;10.938;2024-01-06T11:45:24;9.60;99.90
41256;DHT22;26989;45.524;10.938;2024-01-06T11:47:55;9.50;99.90
41256;DHT22;26989;45.524;10.938;2024-01-06T11:50:27;9.50;99.90
41256;DHT22;26989;45.524;10.938;2024-01-06T11:52:55;9.50;99.90
41256;DHT22;26989;45.524;10.938;2024-01-06T11:55:22;9.40;99.90
41256;DHT22;26989;45.524;10.938;2024-01-06T11:57:49;9.50;99.90
41256;DHT22;26989;45.524;10.938;2024-01-06T12:00:17;9.50;99.90
41256;DHT22;26989;45.524;10.938;2024-01-06T12:02:44;9.50;99.90
41256;DHT22;26989;45.524;10.938;2024-01-06T12:05:18;9.50;99.90
41256;DHT22;26989;45.524;10.938;2024-01-06T12:07:55;9.60;99.90
41256;DHT22;26989;45.524;10.938;2024-01-06T12:10:24;9.60;99.90
41256;DHT22;26989;45.524;10.938;2024-01-06T12:13:11;9.60;99.90
41256;DHT22;26989;45.524;10.938;2024-01-06T12:15:42;9.70;99.90
41256;DHT22;26989;45.524;10.938;2024-01-06T12:18:09;9.70;99.90
41256;DHT22;26989;45.524;10.938;2024-01-06T12:20:36;9.70;99.90
41256;DHT22;26989;45.524;10.938;2024-01-06T12:23:03;9.70;99.90
41256;DHT22;26989;45.524;10.938;2024-01-06T12:25:34;9.70;99.90
41256;DHT22;26989;45.524;10.938;2024-01-06T12:28:06;9.60;99.90
41256;DHT22;26989;45.524;10.938;2024-01-06T12:30:34;9.50;99.90
41256;DHT22;26989;45.524;10.938;2024-01-06T12:33:02;9.60;99.90
41256;DHT22;26989;45.524;10.938;2024-01-06T12:35:30;9.70;99.90
41256;DHT22;26989;45.524;10.938;2024-01-06T12:37:57;9.70;99.90
41256;DHT22;26989;45.524;10.938;2024-01-06T12:40:24;9.80;99.90
41256;DHT22;26989;45.524;10.938;2024-01-06T12:42:50;9.80;99.90
41256;DHT22;26989;45.524;10.938;2024-01-06T12:45:17;9.60;99.90
41256;DHT22;26989;45.524;10.938;2024-01-06T12:47:44;9.60;99.90
41256;DHT22;26989;45.524;10.938;2024-01-06T12:50:11;9.60;99.90
41256;DHT22;26989;45.524;10.938;2024-01-06T12:52:38;9.50;99.90
41256;DHT22;26989;45.524;10.938;2024-01-06T12:55:07;9.60;99.90
41256;DHT22;26989;45.524;10.938;2024-01-06T12:57:35;9.60;99.90
41256;DHT22;26989;45.524;10.938;2024-01-06T13:00:03;9.70;99.90
41256;DHT22;26989;45.524;10.938;2024-01-06T13:02:30;9.70;99.90
41256;DHT22;26989;45.524;10.938;2024-01-06T13:04:57;9.60;99.90
41256;DHT22;26989;45.524;10.938;2024-01-06T13:07:24;9.60;99.90
41256;DHT22;26989;45.524;10.938;2024-01-06T13:09:51;9.60;99.90
41256;DHT22;26989;45.524;10.938;2024-01-06T13:12:19;9.70;99.90
41256;DHT22;26989;45.524;10.938;2024-01-06T13:14:46;9.80;99.90
41256;DHT22;26989;45.524;10.938;2024-01-06T13:17:14;9.90;99.90
41256;DHT22;26989;45.524;10.938;2024-01-06T13:19:41;9.80;99.90
41256;DHT22;26989;45.524;10.938;2024-01-06T13:22:08;10.00;99.90
41256;DHT22;26989;45.524;10.938;2024-01-06T13:24:35;10.00;99.90
41256;DHT22;26989;45.524;10.938;2024-01-06T13:27:02;10.00;99.90
41256;DHT22;26989;45.524;10.938;2024-01-06T13:29:31;10.10;99.90
41256;DHT22;26989;45.524;10.938;2024-01-06T13:31:58;10.10;99.90
41256;DHT22;26989;45.524;10.938;2024-01-06T13:34:26;10.10;99.90
41256;DHT22;26989;45.524;10.938;2024-01-06T13:36:53;10.10;99.90
41256;DHT22;26989;45.524;10.938;2024-01-06T13:39:24;10.20;99.90
41256;DHT22;26989;45.524;10.938;2024-01-06T13:41:51;10.20;99.90
41256;DHT22;26989;45.524;10.938;2024-01-06T13:44:18;10.00;99.90
41256;DHT22;26989;45.524;10.938;2024-01-06T13:46:45;10.00;99.90
41256;DHT22;26989;45.524;10.938;2024-01-06T13:49:13;10.10;99.90
41256;DHT22;26989;45.524;10.938;2024-01-06T13:51:40;10.00;99.90
41256;DHT22;26989;45.524;10.938;2024-01-06T13:54:08;10.10;99.90
41256;DHT22;26989;45.524;10.938;2024-01-06T13:56:36;10.10;99.90
41256;DHT22;26989;45.524;10.938;2024-01-06T13:59:03;10.00;99.90
41256;DHT22;26989;45.524;10.938;2024-01-06T14:01:31;10.00;99.90
41256;DHT22;26989;45.524;10.938;2024-01-06T14:03:58;10.00;99.90
41256;DHT22;26989;45.524;10.938;2024-01-06T14:06:26;9.90;99.90
41256;DHT22;26989;45.524;10.938;2024-01-06T14:08:57;9.90;99.90
41256;DHT22;26989;45.524;10.938;2024-01-06T14:11:25;9.80;99.90
41256;DHT22;26989;45.524;10.938;2024-01-06T14:13:53;9.80;99.90
41256;DHT22;26989;45.524;10.938;2024-01-06T14:16:20;9.70;99.90
41256;DHT22;26989;45.524;10.938;2024-01-06T14:18:50;9.70;99.90
41256;DHT22;26989;45.524;10.938;2024-01-06T14:21:17;9.70;99.90
41256;DHT22;26989;45.524;10.938;2024-01-06T14:23:46;9.70;99.90
41256;DHT22;26989;45.524;10.938;2024-01-06T14:26:18;9.60;99.90
41256;DHT22;26989;45.524;10.938;2024-01-06T14:28:49;9.60;99.90
41256;DHT22;26989;45.524;10.938;2024-01-06T14:31:16;9.50;99.90
41256;DHT22;26989;45.524;10.938;2024-01-06T14:33:43;9.50;99.90
41256;DHT22;26989;45.524;10.938;2024-01-06T14:36:13;9.50;99.90
41256;DHT22;26989;45.524;10.938;2024-01-06T14:38:40;9.40;99.90
41256;DHT22;26989;45.524;10.938;2024-01-06T14:41:06;9.40;99.90
41256;DHT22;26989;45.524;10.938;2024-01-06T14:43:33;9.30;99.90
41256;DHT22;26989;45.524;10.938;2024-01-06T14:46:00;9.30;99.90
41256;DHT22;26989;45.524;10.938;2024-01-06T14:48:28;9.20;99.90
41256;DHT22;26989;45.524;10.938;2024-01-06T14:50:55;9.20;99.90
41256;DHT22;26989;45.524;10.938;2024-01-06T14:53:22;9.20;99.90
41256;DHT22;26989;45.524;10.938;2024-01-06T14:55:49;9.20;99.90
41256;DHT22;26989;45.524;10.938;2024-01-06T14:58:16;9.20;99.90
41256;DHT22;26989;45.524;10.938;2024-01-06T15:00:42;9.10;99.90
41256;DHT22;26989;45.524;10.938;2024-01-06T15:03:10;9.10;99.90
41256;DHT22;26989;45.524;10.938;2024-01-06T15:05:37;9.10;99.90
41256;DHT22;26989;45.524;10.938;2024-01-06T15:08:05;9.10;99.90
41256;DHT22;26989;45.524;10.938;2024-01-06T15:10:31;9.10;99.90
41256;DHT22;26989;45.524;10.938;2024-01-06T15:12:58;9.00;99.90
41256;DHT22;26989;45.524;10.938;2024-01-06T15:15:26;9.00;99.90
41256;DHT22;26989;45.524;10.938;2024-01-06T15:17:53;9.00;99.90
41256;DHT22;26989;45.524;10.938;2024-01-06T15:20:19;8.90;99.90
41256;DHT22;26989;45.524;10.938;2024-01-06T15:22:47;8.90;99.90
41256;DHT22;26989;45.524;10.938;2024-01-06T15:25:14;8.90;99.90
41256;DHT22;26989;45.524;10.938;2024-01-06T15:27:41;8.90;99.90
41256;DHT22;26989;45.524;10.938;2024-01-06T15:30:09;8.80;99.90
41256;DHT22;26989;45.524;10.938;2024-01-06T15:32:37;8.80;99.90
41256;DHT22;26989;45.524;10.938;2024-01-06T15:35:04;8.70;99.90
41256;DHT22;26989;45.524;10.938;2024-01-06T15:37:32;8.70;99.90
41256;DHT22;26989;45.524;10.938;2024-01-06T15:40:00;8.70;99.90
41256;DHT22;26989;45.524;10.938;2024-01-06T15:42:27;8.70;99.90
41256;DHT22;26989;45.524;10.938;2024-01-06T15:44:55;8.60;99.90